Home > Products > Valid Products > TAF

000
FTUS43 KDLH 192300
TAFDLH
TAF
KDLH 192335Z 2000/2024 29008KT P6SM SCT100
     FM200200 33009G13KT P6SM SCT035
     FM200400 32006KT P6SM SCT028 BKN040
     FM201000 33007KT P6SM BKN028
     FM201400 34009G13KT P6SM BKN022 OVC035
     FM202000 36008KT P6SM SCT035=



000
FTUS43 KDLH 192300
TAFHYR
TAF
KHYR 192335Z 2000/2024 25006KT P6SM SKC
     FM200400 32006KT P6SM SCT030
     FM200900 33005KT P6SM SCT022 BKN035
     FM201400 35008G13KT P6SM BKN018
     FM201900 01010KT P6SM BKN028
     FM202300 05005KT P6SM SCT028 BKN040=



000
FTUS43 KDLH 192300
TAFINL
TAF
KINL 192335Z 2000/2024 33008KT P6SM BKN035 BKN090
     FM200500 32008KT P6SM BKN028
      TEMPO 2009/2013 OVC019
     FM201600 35006KT P6SM SCT025 BKN040
     FM202100 02007KT P6SM SCT040=



000
FTUS43 KDLH 192300
TAFBRD
TAF
KBRD 192335Z 2000/2024 31010KT P6SM SKC
     FM200500 28007KT P6SM SCT025
     FM201500 34011G17KT P6SM SCT030
     FM202000 02007KT P6SM SCT140=



000
FTUS43 KDLH 192300
TAFBRD
TAF
KBRD 192335Z 2000/2024 31010KT P6SM SKC
     FM200500 28007KT P6SM SCT025
     FM201500 34011G17KT P6SM SCT030
     FM202000 02007KT P6SM SCT140=



000
FTUS43 KDLH 192300
TAFINL
TAF
KINL 192335Z 2000/2024 33008KT P6SM BKN035 BKN090
     FM200500 32008KT P6SM BKN028
      TEMPO 2009/2013 OVC019
     FM201600 35006KT P6SM SCT025 BKN040
     FM202100 02007KT P6SM SCT040=



000
FTUS43 KDLH 192300
TAFHYR
TAF
KHYR 192335Z 2000/2024 25006KT P6SM SKC
     FM200400 32006KT P6SM SCT030
     FM200900 33005KT P6SM SCT022 BKN035
     FM201400 35008G13KT P6SM BKN018
     FM201900 01010KT P6SM BKN028
     FM202300 05005KT P6SM SCT028 BKN040=



000
FTUS43 KDLH 192300
TAFDLH
TAF
KDLH 192335Z 2000/2024 29008KT P6SM SCT100
     FM200200 33009G13KT P6SM SCT035
     FM200400 32006KT P6SM SCT028 BKN040
     FM201000 33007KT P6SM BKN028
     FM201400 34009G13KT P6SM BKN022 OVC035
     FM202000 36008KT P6SM SCT035=



000
FTUS43 KDLH 192200 AAA
TAFDLH
TAF AMD
KDLH 192251Z 1923/2018 27012KT P6SM SCT100 SCT220
     FM200100 29007KT P6SM SCT100
     FM200400 33009G13KT P6SM FEW035
     FM200700 32006KT P6SM SCT025 BKN040
     FM201400 34009G13KT P6SM BKN022 OVC035=



000
FTUS43 KDLH 192200 AAA
TAFDLH
TAF AMD
KDLH 192251Z 1923/2018 27012KT P6SM SCT100 SCT220
     FM200100 29007KT P6SM SCT100
     FM200400 33009G13KT P6SM FEW035
     FM200700 32006KT P6SM SCT025 BKN040
     FM201400 34009G13KT P6SM BKN022 OVC035=



000
FTUS43 KDLH 192200 AAA
TAFINL
TAF AMD
KINL 192245Z 1923/2018 33013G19KT P6SM BKN035 BKN090
     FM200100 32008KT P6SM SCT023 SCT040
      TEMPO 2003/2005 BKN023
     FM200500 32008KT P6SM BKN018
      TEMPO 2008/2012 2SM BR OVC009
     FM201600 35006KT P6SM SCT025=



000
FTUS43 KDLH 192200 AAA
TAFINL
TAF AMD
KINL 192245Z 1923/2018 33013G19KT P6SM BKN035 BKN090
     FM200100 32008KT P6SM SCT023 SCT040
      TEMPO 2003/2005 BKN023
     FM200500 32008KT P6SM BKN018
      TEMPO 2008/2012 2SM BR OVC009
     FM201600 35006KT P6SM SCT025=



000
FTUS43 KDLH 191700
TAFHYR
TAF
KHYR 191737Z 1918/2018 22010G20KT P6SM SCT100
     FM192200 26004KT P6SM SKC
     FM200500 34007KT P6SM SCT030
     FM200900 33005KT P6SM FEW022 BKN035
     FM201400 35008G13KT P6SM BKN018
      TEMPO 2015/2018 3SM BR OVC012=



000
FTUS43 KDLH 191700
TAFINL
TAF
KINL 191737Z 1918/2018 29009KT P6SM SKC
     FM192000 30010G17KT P6SM SKC
     FM200100 31007KT P6SM SCT023 BKN040
     FM200500 32008KT P6SM BKN018
      TEMPO 2008/2012 2SM BR OVC009
     FM201600 35006KT P6SM SCT025=



000
FTUS43 KDLH 191700
TAFDLH
TAF
KDLH 191737Z 1918/2018 23010G15KT P6SM SCT100
     FM192100 26008KT P6SM SKC
     FM200300 32010KT P6SM FEW035
     FM200700 31006KT P6SM SCT025 BKN040
     FM201400 34009G13KT P6SM BKN022 OVC035=



000
FTUS43 KDLH 191700
TAFBRD
TAF
KBRD 191737Z 1918/2018 26010KT P6SM SKC
     FM192000 29012G18KT P6SM SKC
     FM200500 28007KT P6SM SCT035
     FM201500 32010G15KT P6SM SCT025=



000
FTUS43 KDLH 191100
TAFINL
TAF
KINL 191125Z 1912/2012 17005KT P6SM BKN100
     FM191500 22007KT P6SM SCT100
     FM191800 27009KT P6SM SKC
     FM192000 30010G17KT P6SM SKC
     FM200000 31007KT P6SM SKC=



000
FTUS43 KDLH 191100
TAFBRD
TAF
KBRD 191125Z 1912/2012 19009KT P6SM BKN100
     FM191500 24009KT P6SM SCT100
     FM191900 29012G20KT P6SM SKC
     FM200000 31008KT P6SM SKC=



000
FTUS43 KDLH 191100
TAFDLH
TAF
KDLH 191125Z 1912/2012 18008KT P6SM BKN100
     FM191600 22010G17KT P6SM SCT100
     FM192300 27008KT P6SM SKC
     FM200300 32008KT P6SM FEW015=



000
FTUS43 KDLH 191100
TAFHYR
TAF
KHYR 191125Z 1912/2012 20004KT P6SM BKN100 WS020/23040KT
     FM191500 22010G20KT P6SM SCT100
     FM200000 29004KT P6SM SKC=



000
FTUS43 KDLH 190500
TAFHYR
TAF
KHYR 190520Z 1906/2006 00000KT P6SM SCT200
     FM191100 18005KT P6SM SCT150 WS020/22035KT
     FM191400 19008KT P6SM FEW025 OVC100
     FM192100 25010KT P6SM SCT090
     FM200000 33010KT P6SM SKC=



000
FTUS43 KDLH 190500
TAFDLH
TAF
KDLH 190520Z 1906/2006 18005KT P6SM SCT100
     FM190900 18005KT P6SM SCT100 WS020/22035KT
     FM191300 20008KT P6SM FEW022 BKN060 OVC100
     FM191700 21012G18KT P6SM SCT050
     FM200400 32010KT P6SM OVC050=



000
FTUS43 KDLH 190500
TAFINL
TAF
KINL 190520Z 1906/2006 18005KT P6SM SCT100
     FM190900 17008KT P6SM FEW022 BKN180
     FM191200 18009KT P6SM SCT018 BKN050 OVC090
     FM191800 25012KT P6SM SCT050
     FM200400 32010KT P6SM BKN050=



000
FTUS43 KDLH 190500
TAFBRD
TAF
KBRD 190520Z 1906/2006 18005KT P6SM SCT150 WS020/23035KT
     FM191200 22008KT P6SM FEW030 BKN090
     FM191700 25010KT P6SM SCT090
     FM200000 33010KT P6SM SKC=



000
FTUS43 KDLH 182300
TAFDLH
TAF
KDLH 182335Z 1900/1924 VRB03KT P6SM SCT100
     FM190600 18005KT P6SM SCT030 BKN150 WS015/24035KT
     FM191300 20008KT P6SM FEW022 BKN060 OVC100
     FM191700 21012G18KT P6SM SCT050 OVC090=



000
FTUS43 KDLH 182300
TAFINL
TAF
KINL 182335Z 1900/1924 18005KT P6SM SKC
     FM190300 17008KT P6SM FEW022 BKN180
     FM190900 18009KT P6SM SCT018 BKN050 OVC090 WS015/24035KT
     FM191500 24008G12KT P6SM FEW030 BKN060=



000
FTUS43 KDLH 182300
TAFHYR
TAF
KHYR 182335Z 1900/1924 00000KT P6SM SKC
     FM190500 18005KT P6SM FEW022 SCT200
     FM191100 17008KT P6SM SCT018 SCT070 BKN140 WS020/23035KT
     FM191600 22010G18KT P6SM FEW025 BKN060 OVC100=



000
FTUS43 KDLH 182300
TAFBRD
TAF
KBRD 182335Z 1900/1924 VRB04KT P6SM SKC
     FM190600 18007KT P6SM FEW060 BKN150 WS015/23035KT
     FM191300 22008G12KT P6SM FEW030 BKN090
     FM191700 24009KT P6SM SCT100=



000
FTUS43 KDLH 181700
TAFHYR
TAF
KHYR 181726Z 1818/1918 VRB04KT P6SM SCT020
     FM182100 00000KT P6SM SKC
     FM190500 18005KT P6SM FEW022 SCT200
     FM191100 17008KT P6SM SCT018 SCT070 BKN140 WS020/23035KT
     FM191600 22010G18KT P6SM FEW025 BKN060 OVC100=



000
FTUS43 KDLH 181700
TAFINL
TAF
KINL 181726Z 1818/1918 VRB02KT P6SM SCT020
     FM182100 18005KT P6SM SKC
     FM190300 17008KT P6SM FEW022 BKN180
     FM190900 18009KT P6SM SCT018 BKN050 OVC090 WS015/24035KT
     FM191500 24008G12KT P6SM FEW030 BKN060=



000
FTUS43 KDLH 181700
TAFBRD
TAF
KBRD 181726Z 1818/1918 VRB04KT P6SM SKC
     FM190600 18007KT P6SM FEW060 BKN150 WS015/23035KT
     FM191300 22008G12KT P6SM FEW030 BKN090
     FM191700 24009KT P6SM SCT100=



000
FTUS43 KDLH 181700
TAFDLH
TAF
KDLH 181726Z 1818/1918 VRB03KT P6SM SKC
     FM190600 18005KT P6SM SCT030 BKN150 WS015/24035KT
     FM191300 20008KT P6SM FEW022 BKN060 OVC100
     FM191700 21012G18KT P6SM SCT050 OVC090=



000
FTUS43 KDLH 181100
TAFHYR
TAF
KHYR 181120Z 1812/1912 36007KT P6SM BKN025
     FM181700 36006KT P6SM BKN035
     FM182000 VRB03KT P6SM SKC=



000
FTUS43 KDLH 181100
TAFBRD
TAF
KBRD 181120Z 1812/1912 01006KT P6SM OVC015
     FM181600 01004KT P6SM SCT025 BKN035
     FM181800 VRB02KT P6SM SCT035
     FM190000 18004KT P6SM SKC=



000
FTUS43 KDLH 181100
TAFBRD
TAF
KBRD 181120Z 1812/1912 01006KT P6SM OVC015
     FM181600 01004KT P6SM SCT025 BKN035
     FM181800 VRB02KT P6SM SCT035
     FM190000 18004KT P6SM SKC=



000
FTUS43 KDLH 181100
TAFINL
TAF
KINL 181120Z 1812/1912 36005KT P6SM OVC015
     FM181700 VRB02KT P6SM SCT030
     FM190000 18005KT P6SM SKC=



000
FTUS43 KDLH 181100
TAFDLH
TAF
KDLH 181120Z 1812/1912 35008KT P6SM BKN015
     FM181600 36006KT P6SM SCT025 BKN035
     FM181800 VRB04KT P6SM FEW040
     FM190000 19005KT P6SM SKC=



000
FTUS43 KDLH 181100
TAFINL
TAF
KINL 181120Z 1812/1912 36005KT P6SM OVC015
     FM181700 VRB02KT P6SM SCT030
     FM190000 18005KT P6SM SKC=



000
FTUS43 KDLH 181100
TAFDLH
TAF
KDLH 181120Z 1812/1912 35008KT P6SM BKN015
     FM181600 36006KT P6SM SCT025 BKN035
     FM181800 VRB04KT P6SM FEW040
     FM190000 19005KT P6SM SKC=



000
FTUS43 KDLH 181100
TAFHYR
TAF
KHYR 181120Z 1812/1912 36007KT P6SM BKN025
     FM181700 36006KT P6SM BKN035
     FM182000 VRB03KT P6SM SKC=



000
FTUS43 KDLH 181000 AAA
TAFHYR
TAF AMD
KHYR 181042Z 1811/1906 36007KT P6SM OVC025
     FM181700 36006KT P6SM BKN035
     FM182000 VRB03KT P6SM SKC=



000
FTUS43 KDLH 181000 AAA
TAFHYR
TAF AMD
KHYR 181042Z 1811/1906 36007KT P6SM OVC025
     FM181700 36006KT P6SM BKN035
     FM182000 VRB03KT P6SM SKC=



000
FTUS43 KDLH 181000 AAA
TAFBRD
TAF AMD
KBRD 181039Z 1811/1906 36006KT P6SM OVC015
     FM181600 01004KT P6SM SCT025 BKN035
     FM181800 VRB02KT P6SM SCT035
     FM190000 18004KT P6SM SKC=



000
FTUS43 KDLH 181000 AAA
TAFBRD
TAF AMD
KBRD 181039Z 1811/1906 36006KT P6SM OVC015
     FM181600 01004KT P6SM SCT025 BKN035
     FM181800 VRB02KT P6SM SCT035
     FM190000 18004KT P6SM SKC=



000
FTUS43 KDLH 181000 AAA
TAFINL
TAF AMD
KINL 181021Z 1810/1906 36007KT P6SM OVC015
     FM181700 VRB02KT P6SM SCT030
     FM190000 18005KT P6SM SKC=



000
FTUS43 KDLH 181000 AAA
TAFDLH
TAF AMD
KDLH 181015Z 1810/1906 35008KT P6SM BKN015
     FM181600 36006KT P6SM SCT025 BKN035
     FM181800 VRB04KT P6SM FEW040
     FM190000 19005KT P6SM SKC=



000
FTUS43 KDLH 181000 AAA
TAFDLH
TAF AMD
KDLH 181015Z 1810/1906 35008KT P6SM BKN015
     FM181600 36006KT P6SM SCT025 BKN035
     FM181800 VRB04KT P6SM FEW040
     FM190000 19005KT P6SM SKC=



000
FTUS43 KDLH 180600 AAA
TAFDLH
TAF AMD
KDLH 180615Z 1806/1906 35010G22KT P6SM VCSH OVC015
     FM181200 35008G15KT P6SM BKN015
     FM181400 36007KT P6SM SCT025
     FM181800 22008KT P6SM SCT045
     FM190000 19006KT P6SM SKC=



000
FTUS43 KDLH 180500
TAFDLH
TAF
KDLH 180526Z 1806/1906 35012G25KT P6SM VCSH OVC016
     FM180800 35014KT P6SM BKN018
     FM181400 36007KT P6SM SCT025
     FM181800 22008KT P6SM SCT045
     FM190000 19006KT P6SM SKC=



000
FTUS43 KDLH 180500
TAFBRD
TAF
KBRD 180526Z 1806/1906 35014KT P6SM OVC020
     FM180900 35011KT P6SM OVC030
     FM181400 35006KT P6SM SCT015
     FM181600 22008KT P6SM SCT045
     FM190000 19006KT P6SM SKC=



000
FTUS43 KDLH 180500
TAFINL
TAF
KINL 180526Z 1806/1906 36008KT P6SM SCT017 OVC028
      TEMPO 1806/1809 BKN017 OVC025
     FM181200 06005KT P6SM SCT030
     FM181600 22008KT P6SM SCT045
     FM190000 19006KT P6SM SKC=



000
FTUS43 KDLH 180500
TAFHYR
TAF
KHYR 180526Z 1806/1906 35008G14KT P6SM OVC014
     FM181200 36007KT P6SM BKN020
     FM181600 36007KT P6SM SCT020
     FM181800 22008KT P6SM SCT045
     FM190000 19006KT P6SM SKC=



000
FTUS43 KDLH 180400 AAA
TAFDLH
TAF AMD
KDLH 180404Z 1804/1824 35011G25KT P6SM VCSH OVC016
     FM180600 35012KT P6SM BKN020
     FM181200 36007KT P6SM SCT025
     FM181800 22008KT P6SM SCT045=



000
FTUS43 KDLH 172300
TAFDLH
TAF
KDLH 172331Z 1800/1824 35011G25KT P6SM VCSH OVC018
     FM180400 35008KT P6SM BKN020
     FM181200 36007KT P6SM SCT025
     FM181800 22008KT P6SM SCT045=



000
FTUS43 KDLH 172300
TAFBRD
TAF
KBRD 172331Z 1800/1824 34014G23KT P6SM BKN035
     FM180200 35012KT P6SM OVC025
     FM180500 35011KT P6SM OVC018
     FM181200 35006KT P6SM SCT015
     FM181600 22008KT P6SM SCT045=



000
FTUS43 KDLH 172300
TAFINL
TAF
KINL 172331Z 1800/1824 01012G19KT P6SM VCSH BKN021
     FM180400 36008KT P6SM BKN025
     FM181200 06005KT P6SM SCT030
     FM181600 22008KT P6SM SCT045=



000
FTUS43 KDLH 172300
TAFHYR
TAF
KHYR 172331Z 1800/1824 34009KT P6SM VCSH OVC030
     FM180500 35007KT P6SM OVC015
     FM181400 36007KT P6SM SCT012
     FM181600 22008KT P6SM SCT045=



000
FTUS43 KDLH 172300
TAFHYR
TAF
KHYR 172331Z 1800/1824 34009KT P6SM VCSH OVC030
     FM180500 35007KT P6SM OVC015
     FM181400 36007KT P6SM SCT012
     FM181600 22008KT P6SM SCT045=



000
FTUS43 KDLH 172300
TAFINL
TAF
KINL 172331Z 1800/1824 01012G19KT P6SM VCSH BKN021
     FM180400 36008KT P6SM BKN025
     FM181200 06005KT P6SM SCT030
     FM181600 22008KT P6SM SCT045=



000
FTUS43 KDLH 172300
TAFDLH
TAF
KDLH 172331Z 1800/1824 35011G25KT P6SM VCSH OVC018
     FM180400 35008KT P6SM BKN020
     FM181200 36007KT P6SM SCT025
     FM181800 22008KT P6SM SCT045=



000
FTUS43 KDLH 172300
TAFBRD
TAF
KBRD 172331Z 1800/1824 34014G23KT P6SM BKN035
     FM180200 35012KT P6SM OVC025
     FM180500 35011KT P6SM OVC018
     FM181200 35006KT P6SM SCT015
     FM181600 22008KT P6SM SCT045=



000
FTUS43 KDLH 172200 AAB
TAFDLH
TAF AMD
KDLH 172214Z 1722/1818 35011G25KT P6SM VCSH SCT015 OVC025
     FM180200 35008KT P6SM BKN020
     FM181100 36007KT P6SM SCT025=



000
FTUS43 KDLH 172200 AAB
TAFDLH
TAF AMD
KDLH 172214Z 1722/1818 35011G25KT P6SM VCSH SCT015 OVC025
     FM180200 35008KT P6SM BKN020
     FM181100 36007KT P6SM SCT025=



000
FTUS43 KDLH 172100 AAA
TAFINL
TAF AMD
KINL 172111Z 1721/1818 01012G19KT P6SM VCSH BKN018
     FM180400 36008KT P6SM SCT025
     FM181400 06005KT P6SM SCT030=



000
FTUS43 KDLH 172100 AAA
TAFINL
TAF AMD
KINL 172111Z 1721/1818 01012G19KT P6SM VCSH BKN018
     FM180400 36008KT P6SM SCT025
     FM181400 06005KT P6SM SCT030=



000
FTUS43 KDLH 172000 AAA
TAFDLH
TAF AMD
KDLH 172058Z 1721/1818 35011KT P6SM VCSH SCT015 OVC025
     FM180200 35008KT P6SM BKN020
     FM181100 36007KT P6SM SCT025=



000
FTUS43 KDLH 172000 AAA
TAFDLH
TAF AMD
KDLH 172058Z 1721/1818 35011KT P6SM VCSH SCT015 OVC025
     FM180200 35008KT P6SM BKN020
     FM181100 36007KT P6SM SCT025=



000
FTUS43 KDLH 171900 AAA
TAFHYR
TAF AMD
KHYR 171959Z 1720/1818 35008KT P6SM VCSH FEW006 OVC012
      TEMPO 1720/1722 5SM -SHRA BR SCT015 BKN025
     FM172200 34009KT P6SM VCSH OVC015
     FM180500 35007KT P6SM OVC008
     FM181300 36007KT P6SM SCT012=



000
FTUS43 KDLH 171900 AAA
TAFBRD
TAF AMD
KBRD 171957Z 1720/1818 01014G23KT P6SM SCT025 BKN035
     FM180000 35012KT P6SM OVC025
     FM180300 35011KT P6SM OVC018
     FM180800 35006KT P6SM SCT015=



000
FTUS43 KDLH 171900 AAA
TAFBRD
TAF AMD
KBRD 171957Z 1720/1818 01014G23KT P6SM SCT025 BKN035
     FM180000 35012KT P6SM OVC025
     FM180300 35011KT P6SM OVC018
     FM180800 35006KT P6SM SCT015=



000
FTUS43 KDLH 171700
TAFHYR
TAF
KHYR 171738Z 1718/1818 35008KT P6SM VCSH FEW006 OVC012
      TEMPO 1718/1721 1 1/2SM -SHRA BR BKN006
     FM172200 34009KT P6SM OVC015
     FM180500 35007KT P6SM OVC008
     FM181300 36007KT P6SM SCT012=



000
FTUS43 KDLH 171700
TAFINL
TAF
KINL 171738Z 1718/1818 01012G19KT P6SM VCSH BKN025
      TEMPO 1718/1720 6SM -SHRA OVC015
     FM180400 36008KT P6SM SCT025
     FM181400 06005KT P6SM SCT030=



000
FTUS43 KDLH 171700
TAFDLH
TAF
KDLH 171738Z 1718/1818 01011KT P6SM VCSH SCT008 OVC015
      TEMPO 1719/1722 SCT015 OVC025
     FM172200 34010KT P6SM OVC025
     FM180400 35008KT P6SM BKN020
     FM181100 36007KT P6SM SCT025=



000
FTUS43 KDLH 171700
TAFBRD
TAF
KBRD 171738Z 1718/1818 01014G25KT P6SM OVC023
     FM172200 35012G20KT P6SM OVC025
     FM180300 35011KT P6SM OVC018
     FM180800 35006KT P6SM SCT015=



000
FTUS43 KDLH 171600 AAB
TAFDLH
TAF AMD
KDLH 171620Z 1716/1812 34011KT P6SM VCSH OVC012
      TEMPO 1716/1719 3SM -RA BKN008 OVC012
     FM180100 35012KT P6SM BKN025=



000
FTUS43 KDLH 171500 AAA
TAFHYR
TAF AMD
KHYR 171520Z 1715/1812 33005KT P6SM VCSH OVC006
      TEMPO 1715/1719 1 1/2SM -SHRA BR BKN005
     FM172000 34009KT P6SM VCSH OVC009
     FM180000 36006KT P6SM OVC015=



000
FTUS43 KDLH 171400 AAA
TAFINL
TAF AMD
KINL 171434Z 1715/1812 01012G20KT P6SM VCSH BKN025
     FM172200 35008KT P6SM VCSH BKN025
     FM180300 36008KT P6SM BKN050
     FM180600 02004KT P6SM SCT050=



000
FTUS43 KDLH 171300 AAA
TAFDLH
TAF AMD
KDLH 171348Z 1714/1812 34011KT P6SM VCSH OVC012
      TEMPO 1714/1716 BKN008 OVC012
     FM171600 36012G24KT P6SM VCSH BKN015
     FM180100 35012KT P6SM BKN025=



000
FTUS43 KDLH 171300 AAA
TAFBRD
TAF AMD
KBRD 171317Z 1713/1812 33011G18KT P6SM VCSH OVC025
     FM171500 35014G24KT P6SM OVC025
     FM180000 35012KT P6SM BKN040
     FM180800 34004KT P6SM SCT050=



000
FTUS43 KDLH 171300 AAA
TAFDLH
TAF AMD
KDLH 171316Z 1713/1812 34011KT P6SM VCSH OVC012
     FM171600 36012G24KT P6SM VCSH BKN015
     FM180100 35012KT P6SM BKN025=



000
FTUS43 KDLH 171100
TAFDLH
TAF
KDLH 171136Z 1712/1812 34006KT P6SM -SHRA BKN008 OVC017
     FM171400 01009G16KT P6SM VCSH OVC012
     FM171600 36012G24KT P6SM VCSH BKN015
     FM180100 35012KT P6SM BKN025=



000
FTUS43 KDLH 171100
TAFHYR
TAF
KHYR 171136Z 1712/1812 32005KT P6SM VCSH OVC006
      TEMPO 1712/1716 3SM -SHRA BR BKN006
     FM171600 34010G18KT P6SM VCSH OVC009
     FM180000 36006KT P6SM OVC015=



000
FTUS43 KDLH 171100
TAFINL
TAF
KINL 171136Z 1712/1812 01013G17KT P6SM VCSH BKN045 OVC090
      TEMPO 1712/1714 -SHRA BKN017
     FM171500 02012G19KT P6SM VCSH BKN020
     FM172200 35008KT P6SM VCSH BKN025
     FM180300 36008KT P6SM BKN050
     FM180600 02004KT P6SM SCT050=



000
FTUS43 KDLH 171100
TAFBRD
TAF
KBRD 171136Z 1712/1812 30010G18KT P6SM VCSH OVC020
     FM171500 35014G24KT P6SM OVC025
     FM180000 35012KT P6SM BKN040
     FM180800 34004KT P6SM SCT050=



000
FTUS43 KDLH 171100
TAFHYR
TAF
KHYR 171136Z 1712/1812 32005KT P6SM VCSH OVC006
      TEMPO 1712/1716 3SM -SHRA BR BKN006
     FM171600 34010G18KT P6SM VCSH OVC009
     FM180000 36006KT P6SM OVC015=



000
FTUS43 KDLH 171100
TAFINL
TAF
KINL 171136Z 1712/1812 01013G17KT P6SM VCSH BKN045 OVC090
      TEMPO 1712/1714 -SHRA BKN017
     FM171500 02012G19KT P6SM VCSH BKN020
     FM172200 35008KT P6SM VCSH BKN025
     FM180300 36008KT P6SM BKN050
     FM180600 02004KT P6SM SCT050=



000
FTUS43 KDLH 171100
TAFDLH
TAF
KDLH 171136Z 1712/1812 34006KT P6SM -SHRA BKN008 OVC017
     FM171400 01009G16KT P6SM VCSH OVC012
     FM171600 36012G24KT P6SM VCSH BKN015
     FM180100 35012KT P6SM BKN025=



000
FTUS43 KDLH 171100
TAFBRD
TAF
KBRD 171136Z 1712/1812 30010G18KT P6SM VCSH OVC020
     FM171500 35014G24KT P6SM OVC025
     FM180000 35012KT P6SM BKN040
     FM180800 34004KT P6SM SCT050=



000
FTUS43 KDLH 171100 AAC
TAFBRD
TAF AMD
KBRD 171108Z 1711/1806 30010G18KT P6SM VCSH OVC020
     FM171500 35014G24KT P6SM SCT015 BKN030
     FM180000 35012KT P6SM BKN040=



000
FTUS43 KDLH 171100 AAC
TAFINL
TAF AMD
KINL 171108Z 1711/1806 02009G17KT P6SM VCSH BKN045 OVC090
      TEMPO 1711/1714 -SHRA BKN017
     FM171500 02012G19KT P6SM VCSH BKN028
     FM172200 35008KT P6SM VCSH BKN045=



000
FTUS43 KDLH 171100 AAC
TAFINL
TAF AMD
KINL 171108Z 1711/1806 02009G17KT P6SM VCSH BKN045 OVC090
      TEMPO 1711/1714 -SHRA BKN017
     FM171500 02012G19KT P6SM VCSH BKN028
     FM172200 35008KT P6SM VCSH BKN045=



000
FTUS43 KDLH 171100 AAC
TAFBRD
TAF AMD
KBRD 171108Z 1711/1806 30010G18KT P6SM VCSH OVC020
     FM171500 35014G24KT P6SM SCT015 BKN030
     FM180000 35012KT P6SM BKN040=



000
FTUS43 KDLH 171000 AAB
TAFBRD
TAF AMD
KBRD 171059Z 1711/1806 30010G18KT P6SM VCSH OVC020
     FM171500 35014G24KT P6SM SCT015 BKN030
     FM180000 35012KT P6SM BKN040=



000
FTUS43 KDLH 171000 AAC
TAFHYR
TAF AMD
KHYR 171059Z 1711/1806 25003KT P6SM VCSH OVC005
      TEMPO 1711/1713 3SM -SHRA BR OVC003
     FM171400 34012KT P6SM VCSH OVC020
     FM180000 36006KT P6SM OVC040=



000
FTUS43 KDLH 171000 AAC
TAFHYR
TAF AMD
KHYR 171059Z 1711/1806 25003KT P6SM VCSH OVC005
      TEMPO 1711/1713 3SM -SHRA BR OVC003
     FM171400 34012KT P6SM VCSH OVC020
     FM180000 36006KT P6SM OVC040=



000
FTUS43 KDLH 171000 AAB
TAFBRD
TAF AMD
KBRD 171059Z 1711/1806 30010G18KT P6SM VCSH OVC020
     FM171500 35014G24KT P6SM SCT015 BKN030
     FM180000 35012KT P6SM BKN040=



000
FTUS43 KDLH 171000 AAB
TAFINL
TAF AMD
KINL 171058Z 1711/1806 01009KT P6SM VCSH SCT025 OVC090
      TEMPO 1711/1714 -SHRA BKN017
     FM171500 02012KT P6SM VCSH BKN028
     FM172200 35008KT P6SM VCSH BKN045=



000
FTUS43 KDLH 171000 AAB
TAFINL
TAF AMD
KINL 171058Z 1711/1806 01009KT P6SM VCSH SCT025 OVC090
      TEMPO 1711/1714 -SHRA BKN017
     FM171500 02012KT P6SM VCSH BKN028
     FM172200 35008KT P6SM VCSH BKN045=



000
FTUS43 KDLH 171000 AAA
TAFBRD
TAF AMD
KBRD 171028Z 1710/1806 30010KT P6SM VCSH OVC018
     FM171500 35014G24KT P6SM SCT015 BKN030
     FM180000 35012KT P6SM BKN040=



000
FTUS43 KDLH 171000 AAA
TAFINL
TAF AMD
KINL 171027Z 1710/1806 02009KT P6SM VCSH BKN024 OVC090
      TEMPO 1711/1714 -SHRA BKN017
     FM171500 02012KT P6SM VCSH BKN028
     FM172200 35008KT P6SM VCSH BKN045=



000
FTUS43 KDLH 171000 AAA
TAFDLH
TAF AMD
KDLH 171025Z 1710/1806 34006KT P6SM -SHRA OVC007
     FM171400 01009G14KT P6SM VCSH OVC012
     FM171600 36012G21KT P6SM VCSH BKN030
     FM180000 35012KT P6SM BKN045=



000
FTUS43 KDLH 170900 AAB
TAFHYR
TAF AMD
KHYR 170930Z 1710/1806 25003KT 6SM BR VCSH OVC003
      TEMPO 1710/1713 3SM -SHRA BR OVC003
     FM171400 34012KT P6SM VCSH OVC020
     FM180000 36006KT P6SM OVC040=



000
FTUS43 KDLH 170700 AAA
TAFHYR
TAF AMD
KHYR 170714Z 1707/1806 25003KT P6SM BKN005 OVC014
     FM171100 29005KT P6SM BKN005 OVC016
     FM171400 34012KT P6SM VCSH OVC020
     FM180000 36006KT P6SM OVC040=



000
FTUS43 KDLH 170700 AAA
TAFDLH
TAF AMD
KDLH 170712Z 1707/1806 VRB04KT 4SM -RA BR BKN005 OVC050
     FM170800 04006KT 3SM BR VCSH OVC004
      TEMPO 1708/1710 1SM -SHRA BR OVC004
     FM171200 01009G14KT P6SM VCSH OVC015
     FM171500 36012G19KT P6SM VCSH BKN030
     FM180000 35012KT P6SM BKN045=



000
FTUS43 KDLH 170500
TAFINL
TAF
KINL 170528Z 1706/1806 06006KT P6SM VCSH OVC070
     FM171000 36005KT P6SM VCSH OVC040
     FM171500 36012KT P6SM VCSH BKN030
     FM180000 35008KT P6SM VCSH BKN045=



000
FTUS43 KDLH 170500
TAFBRD
TAF
KBRD 170528Z 1706/1806 30008KT P6SM SCT014 BKN022 OVC030
      TEMPO 1706/1708 BKN015
     FM170800 30012G20KT P6SM VCSH BKN020
     FM171500 35014G24KT P6SM SCT015 BKN030
     FM180000 35012KT P6SM BKN040=



000
FTUS43 KDLH 170500
TAFDLH
TAF
KDLH 170528Z 1706/1806 03005KT 3SM RA BR SCT004 OVC045
     FM170800 04006KT 1SM BR VCSH OVC004
     FM171200 01009G14KT P6SM VCSH OVC015
     FM171500 36012G19KT P6SM VCSH BKN030
     FM180000 35012KT P6SM BKN045=



000
FTUS43 KDLH 170500
TAFHYR
TAF
KHYR 170528Z 1706/1806 19004KT P6SM BKN060
     FM170800 28003KT P6SM VCSH BKN025
     FM171400 34012KT P6SM VCSH OVC020
     FM180000 36006KT P6SM OVC040=



000
FTUS43 KDLH 170500
TAFDLH
TAF
KDLH 170528Z 1706/1806 03005KT 3SM RA BR SCT004 OVC045
     FM170800 04006KT 1SM BR VCSH OVC004
     FM171200 01009G14KT P6SM VCSH OVC015
     FM171500 36012G19KT P6SM VCSH BKN030
     FM180000 35012KT P6SM BKN045=



000
FTUS43 KDLH 170500
TAFBRD
TAF
KBRD 170528Z 1706/1806 30008KT P6SM SCT014 BKN022 OVC030
      TEMPO 1706/1708 BKN015
     FM170800 30012G20KT P6SM VCSH BKN020
     FM171500 35014G24KT P6SM SCT015 BKN030
     FM180000 35012KT P6SM BKN040=



000
FTUS43 KDLH 170500
TAFINL
TAF
KINL 170528Z 1706/1806 06006KT P6SM VCSH OVC070
     FM171000 36005KT P6SM VCSH OVC040
     FM171500 36012KT P6SM VCSH BKN030
     FM180000 35008KT P6SM VCSH BKN045=



000
FTUS43 KDLH 170500
TAFHYR
TAF
KHYR 170528Z 1706/1806 19004KT P6SM BKN060
     FM170800 28003KT P6SM VCSH BKN025
     FM171400 34012KT P6SM VCSH OVC020
     FM180000 36006KT P6SM OVC040=



000
FTUS43 KDLH 170500 AAD
TAFDLH
TAF AMD
KDLH 170501Z 1705/1724 01005KT 3SM BR VCSH BKN045
      TEMPO 1706/1708 1SM -RA BR OVC011
     FM170800 06006KT 1SM -RA BR OVC004
     FM171200 34010KT P6SM VCSH OVC015=



000
FTUS43 KDLH 170500 AAD
TAFDLH
TAF AMD
KDLH 170501Z 1705/1724 01005KT 3SM BR VCSH BKN045
      TEMPO 1706/1708 1SM -RA BR OVC011
     FM170800 06006KT 1SM -RA BR OVC004
     FM171200 34010KT P6SM VCSH OVC015=



    US Dept of Commerce
    National Oceanic and Atmospheric Administration
    National Weather Service
    1325 East West Highway
    Silver Spring, MD 20910
    Page Author: NWS Internet Services Team
Disclaimer
Information Quality
Credits
Glossary
Privacy Policy
Freedom of Information Act (FOIA)
About Us
Career Opportunities